Time;durP1;ratioP1;P1;durP2;ratioP2;P2;SDS_P1;SDS_P2;PMS_P1;PMS_P2;Temp;Humidity;BMP_temperature;BMP_pressure;BME280_temperature;BME280_humidity;BME280_pressure;Samples;Min_cycle;Max_cycle;Signal;HPM_P1;HPM_P2
2023/10/17 00:00:43;;;;;;;42.53;19.53;;;;;;;-143.21;49.25;73307.81;5068946;28;20671;-81
2023/10/17 00:03:11;;;;;;;32.67;19.30;;;;;;;-143.21;49.69;73307.81;5068877;28;20229;-80
2023/10/17 00:05:39;;;;;;;24.37;13.17;;;;;;;-143.21;49.68;73303.84;5069658;28;20282;-81
2023/10/17 00:08:09;;;;;;;27.77;13.37;;;;;;;-143.21;49.57;73297.91;5069125;28;20197;-80
2023/10/17 00:10:41;;;;;;;24.13;11.43;;;;;;;-143.21;49.73;73287.97;5068919;28;20229;-80
2023/10/17 00:13:25;;;;;;;22.77;12.50;;;;;;;-143.21;49.56;73297.91;5069296;28;20695;-80
2023/10/17 00:15:52;;;;;;;39.20;16.83;;;;;;;-143.21;50.52;73311.78;5065485;28;20197;-80
2023/10/17 00:18:21;;;;;;;24.07;13.73;;;;;;;-143.21;50.23;73313.78;5068859;28;20216;-80
2023/10/17 00:20:51;;;;;;;27.23;15.00;;;;;;;-143.21;50.13;73311.78;5069821;28;20232;-80
2023/10/17 00:23:20;;;;;;;30.67;17.03;;;;;;;-143.21;50.00;73305.84;5069437;28;20748;-80
2023/10/17 00:25:49;;;;;;;30.07;14.97;;;;;;;-143.21;49.68;73307.81;5069821;28;20287;-80
2023/10/17 00:28:20;;;;;;;25.57;12.67;;;;;;;-143.21;49.85;73297.91;5069489;28;21110;-79
2023/10/17 00:30:49;;;;;;;16.70;10.10;;;;;;;-143.21;49.68;73295.91;5069200;28;20240;-80
2023/10/17 00:33:20;;;;;;;17.00;9.63;;;;;;;-143.21;49.46;73307.81;5070199;28;20621;-79
2023/10/17 00:35:48;;;;;;;17.63;10.30;;;;;;;-143.21;49.81;73317.75;5070073;28;20197;-80
2023/10/17 00:38:17;;;;;;;18.40;9.60;;;;;;;-143.21;49.96;73321.72;5070334;28;20213;-80
2023/10/17 00:40:49;;;;;;;18.20;9.43;;;;;;;-143.21;50.22;73333.59;5069723;28;20205;-80
2023/10/17 00:43:19;;;;;;;19.27;9.03;;;;;;;-143.21;50.01;73327.66;5073550;28;20928;-80
2023/10/17 00:45:47;;;;;;;14.57;8.43;;;;;;;-143.21;50.10;73319.72;5075657;28;20732;-81
2023/10/17 00:48:22;;;;;;;14.73;9.03;;;;;;;-143.21;49.97;73311.78;5075228;28;20204;-81
2023/10/17 00:50:52;;;;;;;17.27;7.70;;;;;;;-143.21;49.87;73321.72;5080629;28;20236;-80
2023/10/17 00:53:20;;;;;;;12.47;7.63;;;;;;;-143.21;49.73;73319.72;5088305;28;20205;-80
2023/10/17 00:55:55;;;;;;;17.30;7.30;;;;;;;-143.21;50.10;73315.75;5085630;28;20201;-80
2023/10/17 00:58:24;;;;;;;15.67;7.10;;;;;;;-143.21;49.68;73317.75;5087709;28;20721;-80
2023/10/17 01:00:58;;;;;;;12.00;6.80;;;;;;;-143.21;49.80;73325.69;5083523;28;20203;-80
2023/10/17 01:03:29;;;;;;;9.43;6.13;;;;;;;-143.21;49.40;73319.72;5079921;28;20201;-79
2023/10/17 01:06:13;;;;;;;10.53;5.90;;;;;;;-143.21;49.12;73325.69;5073287;28;20208;-80
2023/10/17 01:08:44;;;;;;;10.07;5.90;;;;;;;-143.21;49.23;73323.69;5072036;28;20209;-80
2023/10/17 01:11:16;;;;;;;8.63;5.07;;;;;;;-143.21;49.05;73325.69;5072241;28;20254;-80
2023/10/17 01:13:47;;;;;;;11.47;7.00;;;;;;;-143.21;49.23;73325.69;5072238;28;20209;-80
2023/10/17 01:16:16;;;;;;;11.10;6.50;;;;;;;-143.21;50.05;73343.53;5073418;28;20301;-79
2023/10/17 01:18:45;;;;;;;10.37;6.23;;;;;;;-143.21;49.86;73337.56;5072463;28;20220;-79
2023/10/17 01:21:17;;;;;;;11.83;6.00;;;;;;;-143.21;50.09;73353.44;5072527;28;20720;-80
2023/10/17 01:23:45;;;;;;;9.30;5.80;;;;;;;-143.21;50.00;73351.47;5073662;28;20671;-80
2023/10/17 01:26:20;;;;;;;10.03;5.80;;;;;;;-143.21;49.91;73347.50;5072919;28;20213;-80
2023/10/17 01:28:48;;;;;;;11.67;5.37;;;;;;;-143.21;49.89;73343.53;5072378;28;20296;-80
2023/10/17 01:31:22;;;;;;;9.07;5.30;;;;;;;-143.21;50.31;73355.44;5072453;28;21502;-80
2023/10/17 01:33:51;;;;;;;9.20;5.17;;;;;;;-143.21;50.40;73367.34;5068790;28;20224;-79
2023/10/17 01:36:19;;;;;;;9.70;5.27;;;;;;;-143.21;50.51;73365.34;5071969;28;21574;-79
2023/10/17 01:38:49;;;;;;;11.77;6.57;;;;;;;-143.21;50.86;73353.44;5072192;28;20214;-79
2023/10/17 01:41:18;;;;;;;10.30;6.30;;;;;;;-143.21;50.79;73359.41;5070559;28;20209;-79
2023/10/17 01:43:45;;;;;;;13.63;6.77;;;;;;;-143.21;50.96;73369.31;5072122;28;20220;-80
2023/10/17 01:46:15;;;;;;;10.30;6.47;;;;;;;-143.21;51.55;73369.31;5071626;28;20237;-79
2023/10/17 01:48:44;;;;;;;11.87;7.17;;;;;;;-143.21;51.22;73373.28;5071227;28;20212;-80
2023/10/17 01:51:13;;;;;;;12.30;6.40;;;;;;;-143.21;51.18;73383.19;5070789;28;20328;-79
2023/10/17 01:53:40;;;;;;;13.87;6.70;;;;;;;-143.21;51.49;73391.13;5069997;28;20705;-79
2023/10/17 01:56:14;;;;;;;16.37;6.37;;;;;;;-143.21;51.60;73403.03;5071462;28;20738;-78
2023/10/17 01:58:46;;;;;;;9.73;5.60;;;;;;;-143.21;52.17;73412.97;5071050;28;20220;-79
2023/10/17 02:01:14;;;;;;;8.90;5.30;;;;;;;-143.21;52.28;73424.84;5071425;28;20288;-79
2023/10/17 02:03:41;;;;;;;9.97;5.57;;;;;;;-143.21;52.43;73422.88;5071536;28;20201;-78
2023/10/17 02:06:14;;;;;;;9.30;5.20;;;;;;;-143.21;52.02;73407.00;5070972;28;20288;-79
2023/10/17 02:08:44;;;;;;;12.03;5.70;;;;;;;-143.21;51.91;73399.06;5071369;28;20270;-78
2023/10/17 02:11:23;;;;;;;12.00;5.00;;;;;;;-143.21;52.04;73405.03;5070871;28;20221;-78
2023/10/17 02:13:53;;;;;;;12.17;5.20;;;;;;;-143.21;52.33;73409.00;5071790;28;20275;-79
2023/10/17 02:16:20;;;;;;;9.10;5.00;;;;;;;-143.21;52.41;73403.03;5071458;28;20209;-79
2023/10/17 02:18:48;;;;;;;9.63;5.40;;;;;;;-143.21;52.71;73414.94;5071437;28;20668;-78
2023/10/17 02:21:15;;;;;;;14.37;5.03;;;;;;;-143.21;52.37;73393.13;5070590;28;21498;-78
2023/10/17 02:23:49;;;;;;;16.60;6.30;;;;;;;-143.21;52.04;73381.22;5070780;28;20229;-78
2023/10/17 02:26:21;;;;;;;9.90;5.63;;;;;;;-143.21;52.61;73399.06;5070818;28;20296;-79
2023/10/17 02:28:53;;;;;;;10.93;5.80;;;;;;;-143.21;52.78;73405.03;5070457;28;20293;-79
2023/10/17 02:31:27;;;;;;;15.27;6.00;;;;;;;-143.21;52.73;73403.03;5070944;28;20640;-79
2023/10/17 02:33:54;;;;;;;9.90;5.40;;;;;;;-143.21;52.53;73395.09;5068463;28;20224;-79
2023/10/17 02:36:21;;;;;;;16.13;5.77;;;;;;;-143.21;52.91;73397.09;5068469;28;20572;-78
2023/10/17 02:38:48;;;;;;;13.17;5.27;;;;;;;-143.21;53.00;73403.03;5071033;28;20197;-79
2023/10/17 02:41:18;;;;;;;14.87;5.60;;;;;;;-143.21;52.83;73397.09;5070677;28;20287;-79
2023/10/17 02:43:46;;;;;;;11.03;5.50;;;;;;;-143.21;53.34;73391.13;5071161;28;20196;-79
2023/10/17 02:46:15;;;;;;;13.63;5.50;;;;;;;-143.21;53.05;73377.25;5070756;28;20265;-79
2023/10/17 02:48:45;;;;;;;13.73;5.50;;;;;;;-143.21;53.15;73375.25;5070460;28;20213;-79
2023/10/17 02:53:56;;;;;;;14.07;5.87;;;;;;;-143.21;52.81;73381.22;5063564;28;20309;-79
2023/10/17 02:56:23;;;;;;;14.27;5.77;;;;;;;-143.21;52.61;73397.09;5070353;28;20236;-78
2023/10/17 02:58:59;;;;;;;11.27;5.60;;;;;;;-143.21;53.16;73403.03;5070923;28;20257;-79
2023/10/17 03:01:28;;;;;;;22.03;5.70;;;;;;;-143.21;53.31;73410.97;5071800;28;20209;-80
2023/10/17 03:03:54;;;;;;;8.83;5.37;;;;;;;-143.21;53.47;73410.97;5068962;28;20205;-82
2023/10/17 03:06:21;;;;;;;11.17;5.63;;;;;;;-143.21;53.91;73420.91;5069781;28;20542;-78
2023/10/17 03:08:51;;;;;;;11.57;5.10;;;;;;;-143.21;54.25;73426.84;5070586;28;20202;-79
2023/10/17 03:11:26;;;;;;;9.23;4.87;;;;;;;-143.21;54.19;73416.94;5070616;28;20274;-78
2023/10/17 03:13:56;;;;;;;8.63;5.13;;;;;;;-143.21;53.78;73399.06;5069839;28;20197;-79
2023/10/17 03:16:25;;;;;;;15.50;6.47;;;;;;;-143.21;53.88;73399.06;5066962;28;20194;-77
2023/10/17 03:18:57;;;;;;;6.63;4.80;;;;;;;-143.21;53.98;73381.22;5066147;28;20294;-79
2023/10/17 03:21:33;;;;;;;9.40;5.27;;;;;;;-143.21;53.57;73369.31;5067887;28;20232;-80
2023/10/17 03:24:10;;;;;;;10.73;4.90;;;;;;;-143.21;53.77;73369.31;5068123;28;20205;-78
2023/10/17 03:26:40;;;;;;;7.20;5.33;;;;;;;-143.21;53.70;73361.38;5069062;28;20280;-78
2023/10/17 03:29:14;;;;;;;12.67;4.97;;;;;;;-143.21;53.65;73359.41;5069133;28;20287;-78
2023/10/17 03:31:42;;;;;;;8.20;5.20;;;;;;;-143.21;53.83;73363.38;5068901;28;20227;-78
2023/10/17 03:34:12;;;;;;;9.87;5.40;;;;;;;-143.21;53.74;73357.41;5069328;28;20232;-79
2023/10/17 03:36:49;;;;;;;12.57;6.00;;;;;;;-143.21;53.59;73361.38;5069914;28;20276;-79
2023/10/17 03:39:20;;;;;;;17.00;8.83;;;;;;;-143.21;53.72;73363.38;5069683;28;20331;-79
2023/10/17 03:41:48;;;;;;;17.37;8.97;;;;;;;-143.21;53.88;73373.28;5068249;28;20217;-79
2023/10/17 03:44:16;;;;;;;14.00;7.97;;;;;;;-143.21;54.20;73373.28;5068505;28;20209;-79
2023/10/17 03:46:48;;;;;;;17.80;8.97;;;;;;;-143.21;54.19;73377.25;5069189;28;20217;-79
2023/10/17 03:49:18;;;;;;;21.13;9.33;;;;;;;-143.21;55.08;73403.03;5068811;28;20201;-79
2023/10/17 03:51:52;;;;;;;16.37;8.60;;;;;;;-143.21;55.61;73401.06;5069164;28;20616;-78
2023/10/17 03:54:22;;;;;;;18.43;7.43;;;;;;;-143.21;55.46;73389.16;5068880;28;20205;-80
2023/10/17 03:56:56;;;;;;;10.40;6.33;;;;;;;-143.21;55.22;73377.25;5066151;28;20288;-79
2023/10/17 03:59:31;;;;;;;16.47;7.10;;;;;;;-143.21;55.15;73365.34;5069358;28;20209;-79
2023/10/17 04:02:00;;;;;;;14.70;6.43;;;;;;;-143.21;55.02;73361.38;5068881;28;20312;-79
2023/10/17 04:04:35;;;;;;;12.30;5.30;;;;;;;-143.21;55.18;73361.38;5068912;28;20205;-79
2023/10/17 04:07:06;;;;;;;16.83;5.70;;;;;;;-143.21;54.93;73361.38;5068707;28;20196;-78
2023/10/17 04:09:37;;;;;;;14.23;6.33;;;;;;;-143.21;54.96;73347.50;5067066;28;20690;-79
2023/10/17 04:12:06;;;;;;;14.03;6.77;;;;;;;-143.21;54.77;73345.50;5067510;28;20531;-80
2023/10/17 04:14:34;;;;;;;10.27;5.33;;;;;;;-143.21;54.63;73357.41;5069266;28;20209;-80
2023/10/17 04:17:04;;;;;;;8.03;5.23;;;;;;;-143.21;54.35;73367.34;5068574;28;20201;-80
2023/10/17 04:19:39;;;;;;;17.00;6.10;;;;;;;-143.21;54.56;73361.38;5069071;28;20308;-80
2023/10/17 04:22:14;;;;;;;11.87;5.90;;;;;;;-143.21;54.44;73339.56;5068418;28;20585;-78
2023/10/17 04:24:45;;;;;;;12.87;5.80;;;;;;;-143.21;54.49;73331.63;5068249;28;20209;-81
2023/10/17 04:27:23;;;;;;;12.40;5.63;;;;;;;-143.21;54.35;73327.66;5068248;28;20209;-78
2023/10/17 04:29:56;;;;;;;14.60;5.37;;;;;;;-143.21;54.13;73321.72;5068508;28;20264;-78
2023/10/17 04:32:26;;;;;;;17.77;5.83;;;;;;;-143.21;54.74;73345.50;5065515;28;20197;-80
2023/10/17 04:34:55;;;;;;;13.43;5.60;;;;;;;-143.21;54.67;73335.59;5065261;28;20201;-79
2023/10/17 04:37:31;;;;;;;10.83;6.13;;;;;;;-143.21;54.73;73341.53;5064979;28;20193;-79
2023/10/17 04:40:27;;;;;;;19.43;6.30;;;;;;;-143.21;54.95;73341.53;5065110;28;20201;-79
2023/10/17 04:42:56;;;;;;;15.53;6.43;;;;;;;-143.21;55.56;73367.34;5066975;28;20730;-79
2023/10/17 04:45:23;;;;;;;12.57;6.80;;;;;;;-143.21;55.93;73383.19;5067254;28;20698;-79
2023/10/17 04:48:10;;;;;;;26.30;7.80;;;;;;;-143.21;56.59;73395.09;5068547;28;20197;-80
2023/10/17 04:50:44;;;;;;;13.93;7.90;;;;;;;-143.21;56.35;73375.25;5067282;28;20193;-79
2023/10/17 04:53:19;;;;;;;14.73;7.20;;;;;;;-143.21;56.58;73375.25;5067424;28;20209;-79
2023/10/17 04:56:13;;;;;;;21.20;7.60;;;;;;;-143.21;56.84;73365.34;5067228;28;20212;-79
2023/10/17 04:58:40;;;;;;;12.43;6.23;;;;;;;-143.21;56.53;73335.59;5058586;28;20213;-79
2023/10/17 05:01:32;;;;;;;15.27;6.33;;;;;;;-143.21;56.16;73321.72;5067533;28;20232;-79
2023/10/17 05:05:39;;;;;;;14.40;7.23;;;;;;;-143.21;56.03;73317.75;5065817;28;20279;-79
2023/10/17 05:07:16;;;;;;;19.17;6.90;;;;;;;-143.21;56.40;73305.84;5053360;28;20211;-79
2023/10/17 06:18:07;;;;;;;9.50;5.13;;;;;;;-143.21;58.57;73055.91;5069842;28;20213;-80
2023/10/17 06:21:06;;;;;;;6.53;4.97;;;;;;;-143.21;58.16;73044.00;5069460;28;20672;-79
2023/10/17 06:31:55;;;;;;;14.90;5.00;;;;;;;-143.21;57.40;73018.22;5068822;28;20209;-79
2023/10/17 06:34:23;;;;;;;11.57;4.50;;;;;;;-143.21;56.93;73014.25;5066893;28;20197;-79
2023/10/17 06:37:07;;;;;;;8.23;4.40;;;;;;;-143.21;56.64;73014.25;5066713;28;20201;-81
2023/10/17 06:43:13;;;;;;;12.10;5.93;;;;;;;-143.21;55.70;72974.56;5054966;28;20632;-78
2023/10/17 06:45:54;;;;;;;16.93;5.63;;;;;;;-143.21;55.72;72974.56;5069578;28;20209;-79
2023/10/17 06:48:22;;;;;;;10.50;4.10;;;;;;;-143.21;55.90;72966.63;5066340;28;20193;-79
2023/10/17 06:53:34;;;;;;;10.43;4.33;;;;;;;-143.21;55.24;72936.88;5067860;28;20200;-80
2023/10/17 06:56:09;;;;;;;8.00;3.93;;;;;;;-143.21;54.98;72926.97;5069102;28;20293;-80
2023/10/17 06:58:38;;;;;;;8.07;3.77;;;;;;;-143.21;54.47;72911.09;5068182;28;20284;-79
2023/10/17 07:01:19;;;;;;;13.30;4.10;;;;;;;-143.21;53.91;72917.06;5068547;28;20201;-79
2023/10/17 07:03:46;;;;;;;10.77;4.03;;;;;;;-143.21;54.43;72917.06;5068726;28;20197;-79
2023/10/17 07:06:13;;;;;;;10.83;4.00;;;;;;;-143.21;54.23;72905.16;5068128;28;20213;-79
2023/10/17 07:08:41;;;;;;;11.97;4.40;;;;;;;-143.21;53.98;72893.25;5068963;28;20220;-79
2023/10/17 07:11:24;;;;;;;7.70;3.90;;;;;;;-143.21;53.93;72887.28;5068132;28;20193;-79
2023/10/17 07:13:59;;;;;;;6.43;3.77;;;;;;;-143.21;53.36;72877.38;5066262;28;20224;-78
2023/10/17 07:16:32;;;;;;;8.30;3.90;;;;;;;-143.21;53.36;72883.31;5066411;28;20664;-79
2023/10/17 07:19:09;;;;;;;10.80;4.27;;;;;;;-143.21;53.54;72875.41;5069388;28;20271;-77
2023/10/17 07:21:55;;;;;;;9.10;4.17;;;;;;;-143.21;53.37;72867.47;5068340;28;20218;-78
2023/10/17 07:24:23;;;;;;;12.57;4.70;;;;;;;-143.21;53.09;72851.59;5067364;28;20194;-77
2023/10/17 07:26:52;;;;;;;6.87;3.90;;;;;;;-143.21;52.92;72839.69;5070704;28;20258;-78
2023/10/17 07:29:21;;;;;;;8.30;3.93;;;;;;;-143.21;52.78;72833.75;5071003;28;20221;-78
2023/10/17 07:31:52;;;;;;;6.93;3.73;;;;;;;-143.21;52.55;72837.72;5069324;28;20199;-78
2023/10/17 07:34:21;;;;;;;6.63;3.53;;;;;;;-143.21;52.34;72835.72;5071700;28;20270;-78
2023/10/17 07:36:50;;;;;;;10.10;4.00;;;;;;;-143.21;52.43;72823.81;5071922;28;20182;-78
2023/10/17 07:39:24;;;;;;;12.20;3.90;;;;;;;-143.21;52.44;72817.88;5072019;28;20201;-78
2023/10/17 07:41:54;;;;;;;8.30;3.13;;;;;;;-143.21;52.01;72805.97;5071230;28;20229;-78
2023/10/17 07:44:22;;;;;;;7.67;3.20;;;;;;;-143.21;51.73;72800.03;5071238;28;20190;-78
2023/10/17 07:47:04;;;;;;;5.37;3.43;;;;;;;-143.21;51.52;72804.00;5071069;28;20238;-78
2023/10/17 07:49:31;;;;;;;10.50;3.63;;;;;;;-143.21;51.57;72792.09;5070759;28;20197;-78
2023/10/17 07:52:00;;;;;;;6.67;3.00;;;;;;;-143.21;51.51;72786.13;5070495;28;20216;-78
2023/10/17 07:54:30;;;;;;;6.37;3.40;;;;;;;-143.21;51.21;72780.19;5070682;28;20198;-79
2023/10/17 07:56:58;;;;;;;9.00;3.10;;;;;;;-143.21;51.39;72782.16;5071359;28;20263;-79
2023/10/17 07:59:31;;;;;;;7.17;2.83;;;;;;;-143.21;50.73;72774.25;5071365;28;20734;-77
2023/10/17 08:02:00;;;;;;;12.00;3.30;;;;;;;-143.21;50.57;72770.28;5070789;28;20221;-78
2023/10/17 08:04:31;;;;;;;4.47;3.20;;;;;;;-143.21;50.43;72764.31;5071177;28;20198;-78
2023/10/17 08:06:57;;;;;;;8.87;3.63;;;;;;;-143.21;50.32;72760.34;5070881;28;20729;-78
2023/10/17 08:09:35;;;;;;;6.47;3.20;;;;;;;-143.21;50.12;72742.50;5071226;28;20205;-78
2023/10/17 08:12:05;;;;;;;13.57;3.77;;;;;;;-143.21;49.20;72728.63;5070956;28;20282;-79
2023/10/17 08:14:34;;;;;;;8.03;3.30;;;;;;;-143.21;49.34;72722.66;5071271;28;20204;-79
2023/10/17 08:17:02;;;;;;;6.27;3.23;;;;;;;-143.21;48.64;72722.66;5070807;28;20294;-78
2023/10/17 08:19:35;;;;;;;13.57;3.43;;;;;;;-143.21;48.16;72710.78;5070835;28;20197;-78
2023/10/17 08:22:10;;;;;;;9.80;3.80;;;;;;;-143.21;47.98;72714.72;5070813;28;20765;-79
2023/10/17 08:24:44;;;;;;;17.00;3.50;;;;;;;-143.21;47.69;72714.72;5071221;28;20215;-79
2023/10/17 08:27:13;;;;;;;7.97;3.10;;;;;;;-143.21;47.91;72706.81;5071314;28;20204;-79
2023/10/17 08:29:45;;;;;;;8.20;3.30;;;;;;;-143.21;48.35;72706.81;5071044;28;20320;-78
2023/10/17 08:32:38;;;;;;;6.53;3.10;;;;;;;-143.21;48.03;72704.81;5071019;28;20213;-78
2023/10/17 08:35:09;;;;;;;9.77;3.53;;;;;;;-143.21;47.96;72698.88;5070457;28;20203;-79
2023/10/17 08:37:43;;;;;;;6.50;2.93;;;;;;;-143.21;48.05;72704.81;5070921;28;20667;-79
2023/10/17 08:42:52;;;;;;;9.17;3.07;;;;;;;-143.21;47.71;72690.94;5050916;28;20224;-78
2023/10/17 08:45:20;;;;;;;8.33;3.37;;;;;;;-143.21;47.66;72692.91;5065088;28;20622;-79
2023/10/17 08:47:48;;;;;;;6.27;2.87;;;;;;;-143.21;47.97;72698.88;5070403;28;20198;-79
2023/10/17 08:50:15;;;;;;;9.07;2.87;;;;;;;-143.21;47.81;72698.88;5070557;28;20205;-78
2023/10/17 08:52:44;;;;;;;6.40;2.90;;;;;;;-143.21;47.87;72694.91;5070776;28;20267;-77
2023/10/17 08:55:15;;;;;;;8.33;3.00;;;;;;;-143.21;47.60;72696.88;5070554;28;20244;-78
2023/10/17 08:57:42;;;;;;;4.40;2.80;;;;;;;-143.21;47.13;72694.91;5070699;28;20232;-78
2023/10/17 09:00:48;;;;;;;5.57;2.90;;;;;;;-143.21;46.97;72694.91;5070709;28;20200;-77
2023/10/17 09:03:23;;;;;;;7.43;3.13;;;;;;;-143.21;46.86;72690.94;5071034;28;20340;-78
2023/10/17 09:06:06;;;;;;;8.67;2.90;;;;;;;-143.21;46.88;72681.03;5074447;28;20284;-79
2023/10/17 09:08:49;;;;;;;4.67;2.77;;;;;;;-143.21;46.84;72667.13;5074455;28;20197;-79
2023/10/17 09:11:25;;;;;;;5.30;3.00;;;;;;;-143.21;46.95;72661.19;5074978;28;20205;-81
2023/10/17 09:16:39;;;;;;;5.97;3.30;;;;;;;-143.21;47.07;72657.22;5071332;28;20200;-79
2023/10/17 09:19:10;;;;;;;8.03;3.10;;;;;;;-143.21;46.95;72641.34;5073547;28;20209;-78
2023/10/17 09:21:41;;;;;;;10.37;2.90;;;;;;;-143.21;46.92;72621.53;5074324;28;20197;-78
2023/10/17 09:24:29;;;;;;;9.07;3.10;;;;;;;-143.21;46.93;72617.56;5073870;28;20197;-78
2023/10/17 09:26:58;;;;;;;6.63;2.90;;;;;;;-143.21;46.69;72617.56;5074049;28;20266;-78
2023/10/17 09:29:27;;;;;;;5.73;3.10;;;;;;;-143.21;46.55;72611.59;5073512;28;20316;-78
2023/10/17 09:31:55;;;;;;;6.37;2.90;;;;;;;-143.21;46.23;72609.63;5074139;28;20201;-78
2023/10/17 09:34:26;;;;;;;7.80;3.90;;;;;;;-143.21;46.08;72605.66;5073487;28;20205;-78
2023/10/17 09:37:03;;;;;;;7.53;3.33;;;;;;;-143.21;46.07;72595.75;5074185;28;20229;-78
2023/10/17 09:39:33;;;;;;;6.33;3.40;;;;;;;-143.21;46.00;72597.72;5073770;28;20200;-79
2023/10/17 09:41:59;;;;;;;7.73;3.23;;;;;;;-143.21;45.80;72585.81;5073640;28;20201;-79
2023/10/17 09:44:26;;;;;;;8.00;3.20;;;;;;;-143.21;45.87;72583.84;5073072;28;20201;-78
2023/10/17 09:46:57;;;;;;;8.40;3.00;;;;;;;-143.21;45.48;72575.91;5073626;28;20201;-78
2023/10/17 09:49:36;;;;;;;8.97;3.37;;;;;;;-143.21;45.87;72569.94;5073173;28;20336;-78
2023/10/17 09:52:09;;;;;;;3.13;2.70;;;;;;;-143.21;46.01;72573.91;5073588;28;20224;-79
2023/10/17 09:54:40;;;;;;;11.33;3.70;;;;;;;-143.21;45.84;72579.88;5073169;28;20374;-80
2023/10/17 09:57:12;;;;;;;10.30;3.10;;;;;;;-143.21;45.71;72565.97;5072895;28;20326;-78
2023/10/17 09:59:47;;;;;;;9.77;3.20;;;;;;;-143.21;45.60;72558.06;5073358;28;20203;-79
2023/10/17 10:02:17;;;;;;;6.33;3.17;;;;;;;-143.21;45.30;72562.03;5073108;28;20699;-78
2023/10/17 10:04:46;;;;;;;4.27;2.97;;;;;;;-143.21;45.27;72558.06;5072594;28;20212;-78
2023/10/17 10:07:21;;;;;;;9.63;3.30;;;;;;;-143.21;45.37;72552.09;5073295;28;20260;-79
2023/10/17 10:09:47;;;;;;;7.53;3.80;;;;;;;-143.21;45.26;72548.13;5073585;28;20211;-79
2023/10/17 10:12:15;;;;;;;8.23;3.20;;;;;;;-143.21;45.33;72540.19;5073268;28;20583;-79
2023/10/17 10:14:43;;;;;;;9.87;3.17;;;;;;;-143.21;44.99;72544.16;5066764;28;20201;-78
2023/10/17 10:17:14;;;;;;;5.87;3.00;;;;;;;-143.21;45.05;72534.25;5072795;28;20225;-78
2023/10/17 10:20:02;;;;;;;5.33;3.10;;;;;;;-143.21;45.22;72528.31;5072942;28;20209;-78
2023/10/17 10:22:53;;;;;;;3.00;2.40;;;;;;;-143.21;45.19;72518.38;5072889;28;20675;-79
2023/10/17 10:25:22;;;;;;;11.53;3.43;;;;;;;-143.21;44.76;72510.44;5072924;28;20197;-79
2023/10/17 10:27:50;;;;;;;6.33;2.80;;;;;;;-143.21;44.77;72524.34;5073018;28;20292;-79
2023/10/17 10:30:35;;;;;;;7.63;2.93;;;;;;;-143.21;44.84;72520.38;5072519;28;20232;-79
2023/10/17 10:33:01;;;;;;;6.30;2.97;;;;;;;-143.21;45.10;72514.41;5072422;28;20223;-78
2023/10/17 10:35:33;;;;;;;9.07;3.10;;;;;;;-143.21;44.91;72514.41;5072554;28;20237;-78
2023/10/17 10:38:00;;;;;;;6.80;3.00;;;;;;;-143.21;44.88;72510.44;5072864;28;20198;-79
2023/10/17 10:40:30;;;;;;;5.03;3.03;;;;;;;-143.21;44.58;72522.34;5072802;28;20268;-79
2023/10/17 10:42:59;;;;;;;8.73;3.20;;;;;;;-143.21;44.94;72524.34;5072600;28;20233;-79
2023/10/17 10:45:36;;;;;;;8.00;3.60;;;;;;;-143.21;45.11;72532.28;5072507;28;20285;-79
2023/10/17 10:48:12;;;;;;;9.13;3.13;;;;;;;-143.21;45.13;72522.34;5072323;28;20278;-78
2023/10/17 10:50:42;;;;;;;5.23;2.87;;;;;;;-143.21;44.74;72512.44;5072022;28;20264;-79
2023/10/17 10:53:22;;;;;;;6.87;2.90;;;;;;;-143.21;45.06;72504.50;5072085;28;20281;-79
2023/10/17 10:55:55;;;;;;;9.07;3.97;;;;;;;-143.21;44.93;72502.53;5071531;28;20575;-78
2023/10/17 10:58:22;;;;;;;6.53;3.40;;;;;;;-143.21;45.06;72494.59;5071392;28;20308;-78
2023/10/17 11:00:49;;;;;;;6.20;3.30;;;;;;;-143.21;44.82;72486.66;5071974;28;20193;-79
2023/10/17 11:03:17;;;;;;;9.67;3.20;;;;;;;-143.21;44.40;72480.72;5071913;28;20695;-79
2023/10/17 11:05:58;;;;;;;7.63;3.07;;;;;;;-143.21;44.01;72472.78;5072153;28;20206;-79
2023/10/17 11:08:25;;;;;;;9.97;3.10;;;;;;;-143.21;43.98;72460.88;5072380;28;20204;-80
2023/10/17 11:11:00;;;;;;;11.40;3.30;;;;;;;-143.21;43.89;72466.81;5071438;28;20208;-79
2023/10/17 11:13:34;;;;;;;5.40;3.20;;;;;;;-143.21;43.65;72464.84;5072208;28;20200;-79
2023/10/17 11:16:01;;;;;;;7.30;3.20;;;;;;;-143.21;44.19;72462.84;5071796;28;20259;-79
2023/10/17 11:18:29;;;;;;;6.73;3.30;;;;;;;-143.21;44.51;72456.91;5071264;28;20205;-79
2023/10/17 11:20:57;;;;;;;9.83;3.00;;;;;;;-143.21;43.93;72447.00;5071476;28;20707;-79
2023/10/17 11:23:27;;;;;;;6.60;2.80;;;;;;;-143.21;43.95;72441.03;5071349;28;20229;-79
2023/10/17 11:25:55;;;;;;;11.67;3.00;;;;;;;-143.21;43.91;72427.16;5070912;28;20656;-79
2023/10/17 11:28:22;;;;;;;4.80;2.97;;;;;;;-143.21;43.81;72425.19;5053081;28;20241;-78
2023/10/17 11:30:50;;;;;;;9.60;3.20;;;;;;;-143.21;43.49;72419.22;5051436;28;20230;-78
2023/10/17 11:33:18;;;;;;;5.57;2.87;;;;;;;-143.21;43.58;72407.31;5069278;28;20197;-79
2023/10/17 11:35:48;;;;;;;12.23;2.93;;;;;;;-143.21;43.41;72401.38;5071162;28;20208;-79
2023/10/17 11:38:34;;;;;;;5.83;3.10;;;;;;;-143.21;43.72;72403.34;5071204;28;20560;-80
2023/10/17 11:41:02;;;;;;;6.67;3.20;;;;;;;-143.21;43.53;72399.41;5070964;28;20675;-79
2023/10/17 11:43:34;;;;;;;7.30;3.50;;;;;;;-143.21;43.83;72397.41;5071519;28;20645;-78
2023/10/17 11:46:01;;;;;;;10.97;3.77;;;;;;;-143.21;43.64;72399.41;5070805;28;20224;-79
2023/10/17 11:48:31;;;;;;;10.20;3.60;;;;;;;-143.21;43.61;72391.47;5070716;28;20197;-79
2023/10/17 11:51:06;;;;;;;8.90;3.00;;;;;;;-143.21;43.62;72383.53;5070902;28;20205;-79
2023/10/17 11:53:34;;;;;;;7.27;2.93;;;;;;;-143.21;43.63;72391.47;5071918;28;20229;-79
2023/10/17 11:56:02;;;;;;;5.57;3.50;;;;;;;-143.21;43.99;72415.25;5070981;28;20205;-78
2023/10/17 11:58:30;;;;;;;8.37;3.50;;;;;;;-143.21;44.34;72415.25;5071393;28;20201;-78
2023/10/17 12:00:57;;;;;;;8.37;3.43;;;;;;;-143.21;44.46;72429.16;5071570;28;20244;-79
2023/10/17 12:03:26;;;;;;;7.27;3.57;;;;;;;-143.21;44.77;72427.16;5070740;28;20225;-79
2023/10/17 12:05:55;;;;;;;5.90;3.43;;;;;;;-143.21;45.05;72425.19;5071169;28;20197;-78
2023/10/17 12:08:29;;;;;;;7.43;3.77;;;;;;;-143.21;45.27;72427.16;5071169;28;20269;-78
2023/10/17 12:10:57;;;;;;;6.60;3.87;;;;;;;-143.21;45.40;72427.16;5071379;28;20194;-78
2023/10/17 12:13:26;;;;;;;7.50;3.77;;;;;;;-143.21;45.22;72433.09;5071346;28;20193;-78
2023/10/17 12:15:56;;;;;;;12.63;3.77;;;;;;;-143.21;45.18;72433.09;5071146;28;20669;-78
2023/10/17 12:18:24;;;;;;;9.50;3.63;;;;;;;-143.21;45.32;72437.06;5070643;28;20212;-77
2023/10/17 12:20:55;;;;;;;11.83;4.23;;;;;;;-143.21;45.18;72431.13;5071091;28;20209;-78
2023/10/17 12:23:29;;;;;;;11.07;3.77;;;;;;;-143.21;45.22;72423.19;5071031;28;20224;-78
2023/10/17 12:25:58;;;;;;;9.17;3.90;;;;;;;-143.21;45.32;72411.28;5070590;28;20208;-78
2023/10/17 12:28:26;;;;;;;7.53;3.83;;;;;;;-143.21;45.12;72419.22;5070175;28;20567;-79
2023/10/17 12:30:53;;;;;;;8.57;3.80;;;;;;;-143.21;45.45;72421.22;5070278;28;20237;-78
2023/10/17 12:33:23;;;;;;;9.93;4.20;;;;;;;-143.21;45.50;72423.19;5069346;28;20201;-78
2023/10/17 12:35:51;;;;;;;11.03;3.80;;;;;;;-143.21;45.74;72411.28;5070459;28;20273;-78
2023/10/17 12:38:25;;;;;;;9.87;3.43;;;;;;;-143.21;45.64;72413.28;5076606;28;20208;-78
2023/10/17 12:40:52;;;;;;;19.07;4.37;;;;;;;-143.21;45.76;72409.31;5077123;28;20231;-78
2023/10/17 12:43:21;;;;;;;13.20;3.63;;;;;;;-143.21;45.82;72421.22;5077506;28;20260;-79
2023/10/17 12:45:49;;;;;;;8.13;3.30;;;;;;;-143.21;45.75;72423.19;5077125;28;20237;-77
2023/10/17 12:48:16;;;;;;;8.53;3.70;;;;;;;-143.21;45.40;72417.25;5077368;28;20266;-78
2023/10/17 12:50:44;;;;;;;6.53;3.40;;;;;;;-143.21;45.25;72411.28;5075140;28;20212;-78
2023/10/17 12:53:12;;;;;;;6.53;3.70;;;;;;;-143.21;45.40;72417.25;5076893;28;20189;-78
2023/10/17 12:55:39;;;;;;;10.27;4.20;;;;;;;-143.21;45.49;72427.16;5077006;28;20582;-79
2023/10/17 12:58:07;;;;;;;5.10;3.67;;;;;;;-143.21;45.74;72427.16;5077012;28;20205;-79
2023/10/17 13:00:35;;;;;;;5.30;3.57;;;;;;;-143.21;45.76;72435.09;5076677;28;20200;-79
2023/10/17 13:03:02;;;;;;;6.33;3.70;;;;;;;-143.21;45.99;72429.16;5077509;28;20197;-78